sensor_id;sensor_type;location;lat;lon;timestamp;temperature;humidity
29803;DHT22;16702;50.898;4.662;2023-08-12T00:01:53;23.90;99.90
29803;DHT22;16702;50.898;4.662;2023-08-12T00:04:23;23.90;99.90
29803;DHT22;16702;50.898;4.662;2023-08-12T00:06:54;23.80;99.90
29803;DHT22;16702;50.898;4.662;2023-08-12T00:09:27;23.70;99.90
29803;DHT22;16702;50.898;4.662;2023-08-12T00:11:58;23.80;99.90
29803;DHT22;16702;50.898;4.662;2023-08-12T00:14:28;23.80;99.90
29803;DHT22;16702;50.898;4.662;2023-08-12T00:16:59;23.70;99.90
29803;DHT22;16702;50.898;4.662;2023-08-12T00:19:32;23.70;99.90
29803;DHT22;16702;50.898;4.662;2023-08-12T00:22:03;23.70;99.90
29803;DHT22;16702;50.898;4.662;2023-08-12T00:24:37;23.70;99.90
29803;DHT22;16702;50.898;4.662;2023-08-12T00:27:07;23.70;99.90
29803;DHT22;16702;50.898;4.662;2023-08-12T00:29:39;23.70;99.90
29803;DHT22;16702;50.898;4.662;2023-08-12T00:32:10;23.70;99.90
29803;DHT22;16702;50.898;4.662;2023-08-12T00:34:40;23.70;99.90
29803;DHT22;16702;50.898;4.662;2023-08-12T00:37:11;23.60;99.90
29803;DHT22;16702;50.898;4.662;2023-08-12T00:39:44;23.60;99.90
29803;DHT22;16702;50.898;4.662;2023-08-12T00:42:15;23.60;99.90
29803;DHT22;16702;50.898;4.662;2023-08-12T00:44:45;23.60;99.90
29803;DHT22;16702;50.898;4.662;2023-08-12T00:47:16;23.60;99.90
29803;DHT22;16702;50.898;4.662;2023-08-12T00:49:48;23.50;99.90
29803;DHT22;16702;50.898;4.662;2023-08-12T00:52:19;23.50;99.90
29803;DHT22;16702;50.898;4.662;2023-08-12T00:54:53;23.50;99.90
29803;DHT22;16702;50.898;4.662;2023-08-12T00:57:24;23.50;99.90
29803;DHT22;16702;50.898;4.662;2023-08-12T00:59:56;23.50;99.90
29803;DHT22;16702;50.898;4.662;2023-08-12T01:02:28;23.50;99.90
29803;DHT22;16702;50.898;4.662;2023-08-12T01:04:59;23.50;99.90
29803;DHT22;16702;50.898;4.662;2023-08-12T01:07:29;23.40;99.90
29803;DHT22;16702;50.898;4.662;2023-08-12T01:10:03;23.50;99.90
29803;DHT22;16702;50.898;4.662;2023-08-12T01:12:44;23.40;99.90
29803;DHT22;16702;50.898;4.662;2023-08-12T01:15:21;23.40;99.90
29803;DHT22;16702;50.898;4.662;2023-08-12T01:17:54;23.40;99.90
29803;DHT22;16702;50.898;4.662;2023-08-12T01:20:28;23.30;99.90
29803;DHT22;16702;50.898;4.662;2023-08-12T01:23:10;23.30;99.90
29803;DHT22;16702;50.898;4.662;2023-08-12T01:25:41;23.40;99.90
29803;DHT22;16702;50.898;4.662;2023-08-12T01:28:12;23.40;99.90
29803;DHT22;16702;50.898;4.662;2023-08-12T01:30:48;23.30;99.90
29803;DHT22;16702;50.898;4.662;2023-08-12T01:33:27;23.40;99.90
29803;DHT22;16702;50.898;4.662;2023-08-12T01:36:06;23.30;99.90
29803;DHT22;16702;50.898;4.662;2023-08-12T01:38:42;23.30;99.90
29803;DHT22;16702;50.898;4.662;2023-08-12T01:41:14;23.30;99.90
29803;DHT22;16702;50.898;4.662;2023-08-12T01:43:46;23.30;99.90
29803;DHT22;16702;50.898;4.662;2023-08-12T01:46:16;23.30;99.90
29803;DHT22;16702;50.898;4.662;2023-08-12T01:48:47;23.30;99.90
29803;DHT22;16702;50.898;4.662;2023-08-12T01:51:18;23.20;99.90
29803;DHT22;16702;50.898;4.662;2023-08-12T01:53:51;23.20;99.90
29803;DHT22;16702;50.898;4.662;2023-08-12T01:56:24;23.30;99.90
29803;DHT22;16702;50.898;4.662;2023-08-12T01:58:55;23.20;99.90
29803;DHT22;16702;50.898;4.662;2023-08-12T02:01:26;23.20;99.90
29803;DHT22;16702;50.898;4.662;2023-08-12T02:03:56;23.10;99.90
29803;DHT22;16702;50.898;4.662;2023-08-12T02:06:27;23.20;99.90
29803;DHT22;16702;50.898;4.662;2023-08-12T02:09:02;23.20;99.90
29803;DHT22;16702;50.898;4.662;2023-08-12T02:11:32;23.20;99.90
29803;DHT22;16702;50.898;4.662;2023-08-12T02:14:03;23.20;99.90
29803;DHT22;16702;50.898;4.662;2023-08-12T02:16:34;23.20;99.90
29803;DHT22;16702;50.898;4.662;2023-08-12T02:19:05;23.20;99.90
29803;DHT22;16702;50.898;4.662;2023-08-12T02:21:35;23.10;99.90
29803;DHT22;16702;50.898;4.662;2023-08-12T02:24:10;23.10;99.90
29803;DHT22;16702;50.898;4.662;2023-08-12T02:26:40;23.10;99.90
29803;DHT22;16702;50.898;4.662;2023-08-12T02:29:11;23.10;99.90
29803;DHT22;16702;50.898;4.662;2023-08-12T02:31:41;23.10;99.90
29803;DHT22;16702;50.898;4.662;2023-08-12T02:34:12;23.10;99.90
29803;DHT22;16702;50.898;4.662;2023-08-12T02:36:43;23.10;99.90
29803;DHT22;16702;50.898;4.662;2023-08-12T02:39:18;23.10;99.90
29803;DHT22;16702;50.898;4.662;2023-08-12T02:41:51;23.00;99.90
29803;DHT22;16702;50.898;4.662;2023-08-12T02:44:21;23.00;99.90
29803;DHT22;16702;50.898;4.662;2023-08-12T02:46:55;23.00;99.90
29803;DHT22;16702;50.898;4.662;2023-08-12T02:49:28;23.00;99.90
29803;DHT22;16702;50.898;4.662;2023-08-12T02:51:59;23.00;99.90
29803;DHT22;16702;50.898;4.662;2023-08-12T02:54:32;23.00;99.90
29803;DHT22;16702;50.898;4.662;2023-08-12T02:57:03;23.00;99.90
29803;DHT22;16702;50.898;4.662;2023-08-12T02:59:34;23.00;99.90
29803;DHT22;16702;50.898;4.662;2023-08-12T03:02:04;23.00;99.90
29803;DHT22;16702;50.898;4.662;2023-08-12T03:04:35;23.00;99.90
29803;DHT22;16702;50.898;4.662;2023-08-12T03:07:06;23.00;99.90
29803;DHT22;16702;50.898;4.662;2023-08-12T03:09:39;23.00;99.90
29803;DHT22;16702;50.898;4.662;2023-08-12T03:12:10;23.00;99.90
29803;DHT22;16702;50.898;4.662;2023-08-12T03:14:40;23.00;99.90
29803;DHT22;16702;50.898;4.662;2023-08-12T03:17:12;23.00;99.90
29803;DHT22;16702;50.898;4.662;2023-08-12T03:19:43;23.00;99.90
29803;DHT22;16702;50.898;4.662;2023-08-12T03:22:14;22.90;99.90
29803;DHT22;16702;50.898;4.662;2023-08-12T03:24:48;22.90;99.90
29803;DHT22;16702;50.898;4.662;2023-08-12T03:27:19;22.90;99.90
29803;DHT22;16702;50.898;4.662;2023-08-12T03:29:52;22.90;99.90
29803;DHT22;16702;50.898;4.662;2023-08-12T03:32:23;22.90;99.90
29803;DHT22;16702;50.898;4.662;2023-08-12T03:34:55;22.90;99.90
29803;DHT22;16702;50.898;4.662;2023-08-12T03:37:26;22.90;99.90
29803;DHT22;16702;50.898;4.662;2023-08-12T03:39:59;22.90;99.90
29803;DHT22;16702;50.898;4.662;2023-08-12T03:42:31;22.90;99.90
29803;DHT22;16702;50.898;4.662;2023-08-12T03:45:03;22.90;99.90
29803;DHT22;16702;50.898;4.662;2023-08-12T03:47:34;22.90;99.90
29803;DHT22;16702;50.898;4.662;2023-08-12T03:50:07;22.80;99.90
29803;DHT22;16702;50.898;4.662;2023-08-12T03:52:38;22.80;99.90
29803;DHT22;16702;50.898;4.662;2023-08-12T03:55:12;22.80;99.90
29803;DHT22;16702;50.898;4.662;2023-08-12T03:57:43;22.80;99.90
29803;DHT22;16702;50.898;4.662;2023-08-12T04:00:13;22.80;99.90
29803;DHT22;16702;50.898;4.662;2023-08-12T04:02:44;22.80;99.90
29803;DHT22;16702;50.898;4.662;2023-08-12T04:05:16;22.80;99.90
29803;DHT22;16702;50.898;4.662;2023-08-12T04:07:48;22.80;99.90
29803;DHT22;16702;50.898;4.662;2023-08-12T04:10:22;22.80;99.90
29803;DHT22;16702;50.898;4.662;2023-08-12T04:12:53;22.70;99.90
29803;DHT22;16702;50.898;4.662;2023-08-12T04:15:23;22.70;99.90
29803;DHT22;16702;50.898;4.662;2023-08-12T04:17:55;22.60;99.90
29803;DHT22;16702;50.898;4.662;2023-08-12T04:20:26;22.60;99.90
29803;DHT22;16702;50.898;4.662;2023-08-12T04:22:57;22.60;99.90
29803;DHT22;16702;50.898;4.662;2023-08-12T04:25:30;22.60;99.90
29803;DHT22;16702;50.898;4.662;2023-08-12T04:28:01;22.60;99.90
29803;DHT22;16702;50.898;4.662;2023-08-12T04:30:33;22.50;99.90
29803;DHT22;16702;50.898;4.662;2023-08-12T04:33:04;22.50;99.90
29803;DHT22;16702;50.898;4.662;2023-08-12T04:35:35;22.60;99.90
29803;DHT22;16702;50.898;4.662;2023-08-12T04:38:06;22.50;99.90
29803;DHT22;16702;50.898;4.662;2023-08-12T04:40:42;22.50;99.90
29803;DHT22;16702;50.898;4.662;2023-08-12T04:43:12;22.40;99.90
29803;DHT22;16702;50.898;4.662;2023-08-12T04:45:45;22.40;99.90
29803;DHT22;16702;50.898;4.662;2023-08-12T04:48:18;22.50;99.90
29803;DHT22;16702;50.898;4.662;2023-08-12T04:50:49;22.50;99.90
29803;DHT22;16702;50.898;4.662;2023-08-12T04:53:20;22.40;99.90
29803;DHT22;16702;50.898;4.662;2023-08-12T04:55:54;22.50;99.90
29803;DHT22;16702;50.898;4.662;2023-08-12T04:58:26;22.40;99.90
29803;DHT22;16702;50.898;4.662;2023-08-12T05:00:57;22.30;99.90
29803;DHT22;16702;50.898;4.662;2023-08-12T05:03:28;22.40;99.90
29803;DHT22;16702;50.898;4.662;2023-08-12T05:05:59;22.40;99.90
29803;DHT22;16702;50.898;4.662;2023-08-12T05:08:31;22.40;99.90
29803;DHT22;16702;50.898;4.662;2023-08-12T05:11:05;22.40;99.90
29803;DHT22;16702;50.898;4.662;2023-08-12T05:13:36;22.30;99.90
29803;DHT22;16702;50.898;4.662;2023-08-12T05:16:07;22.40;99.90
29803;DHT22;16702;50.898;4.662;2023-08-12T05:18:37;22.30;99.90
29803;DHT22;16702;50.898;4.662;2023-08-12T05:21:08;22.40;99.90
29803;DHT22;16702;50.898;4.662;2023-08-12T05:23:39;22.30;99.90
29803;DHT22;16702;50.898;4.662;2023-08-12T05:26:13;22.30;99.90
29803;DHT22;16702;50.898;4.662;2023-08-12T05:28:44;22.30;99.90
29803;DHT22;16702;50.898;4.662;2023-08-12T05:31:14;22.30;99.90
29803;DHT22;16702;50.898;4.662;2023-08-12T05:33:45;22.20;99.90
29803;DHT22;16702;50.898;4.662;2023-08-12T05:36:16;22.20;99.90
29803;DHT22;16702;50.898;4.662;2023-08-12T05:38:46;22.20;99.90
29803;DHT22;16702;50.898;4.662;2023-08-12T05:41:20;22.20;99.90
29803;DHT22;16702;50.898;4.662;2023-08-12T05:43:50;22.10;99.90
29803;DHT22;16702;50.898;4.662;2023-08-12T05:46:21;22.10;99.90
29803;DHT22;16702;50.898;4.662;2023-08-12T05:48:51;22.10;99.90
29803;DHT22;16702;50.898;4.662;2023-08-12T05:51:22;22.10;99.90
29803;DHT22;16702;50.898;4.662;2023-08-12T05:53:57;22.10;99.90
29803;DHT22;16702;50.898;4.662;2023-08-12T05:56:30;22.10;99.90
29803;DHT22;16702;50.898;4.662;2023-08-12T05:59:00;22.10;99.90
29803;DHT22;16702;50.898;4.662;2023-08-12T06:01:31;22.10;99.90
29803;DHT22;16702;50.898;4.662;2023-08-12T06:04:02;22.10;99.90
29803;DHT22;16702;50.898;4.662;2023-08-12T06:06:32;22.00;99.90
29803;DHT22;16702;50.898;4.662;2023-08-12T06:09:03;22.00;99.90
29803;DHT22;16702;50.898;4.662;2023-08-12T06:11:36;22.00;99.90
29803;DHT22;16702;50.898;4.662;2023-08-12T06:14:07;22.00;99.90
29803;DHT22;16702;50.898;4.662;2023-08-12T06:16:37;22.00;99.90
29803;DHT22;16702;50.898;4.662;2023-08-12T06:19:08;22.00;99.90
29803;DHT22;16702;50.898;4.662;2023-08-12T06:21:39;21.90;99.90
29803;DHT22;16702;50.898;4.662;2023-08-12T06:24:09;22.00;99.90
29803;DHT22;16702;50.898;4.662;2023-08-12T06:26:42;22.00;99.90
29803;DHT22;16702;50.898;4.662;2023-08-12T06:29:13;22.00;99.90
29803;DHT22;16702;50.898;4.662;2023-08-12T06:31:44;21.90;99.90
29803;DHT22;16702;50.898;4.662;2023-08-12T06:34:15;22.00;99.90
29803;DHT22;16702;50.898;4.662;2023-08-12T06:36:45;21.90;99.90
29803;DHT22;16702;50.898;4.662;2023-08-12T06:39:16;21.90;99.90
29803;DHT22;16702;50.898;4.662;2023-08-12T06:41:49;21.90;99.90
29803;DHT22;16702;50.898;4.662;2023-08-12T06:44:20;21.90;99.90
29803;DHT22;16702;50.898;4.662;2023-08-12T06:46:50;21.90;99.90
29803;DHT22;16702;50.898;4.662;2023-08-12T06:49:21;21.90;99.90
29803;DHT22;16702;50.898;4.662;2023-08-12T06:51:51;21.90;99.90
29803;DHT22;16702;50.898;4.662;2023-08-12T06:54:22;22.00;99.90
29803;DHT22;16702;50.898;4.662;2023-08-12T06:56:56;22.00;99.90
29803;DHT22;16702;50.898;4.662;2023-08-12T06:59:26;22.00;99.90
29803;DHT22;16702;50.898;4.662;2023-08-12T07:01:57;22.00;99.90
29803;DHT22;16702;50.898;4.662;2023-08-12T07:04:27;22.00;99.90
29803;DHT22;16702;50.898;4.662;2023-08-12T07:06:59;21.90;99.90
29803;DHT22;16702;50.898;4.662;2023-08-12T07:09:29;22.00;99.90
29803;DHT22;16702;50.898;4.662;2023-08-12T07:12:03;22.00;99.90
29803;DHT22;16702;50.898;4.662;2023-08-12T07:14:34;22.00;99.90
29803;DHT22;16702;50.898;4.662;2023-08-12T07:17:05;22.00;99.90
29803;DHT22;16702;50.898;4.662;2023-08-12T07:19:35;21.90;99.90
29803;DHT22;16702;50.898;4.662;2023-08-12T07:22:06;21.90;99.90
29803;DHT22;16702;50.898;4.662;2023-08-12T07:24:37;22.00;99.90
29803;DHT22;16702;50.898;4.662;2023-08-12T07:27:10;21.90;99.90
29803;DHT22;16702;50.898;4.662;2023-08-12T07:29:41;22.00;99.90
29803;DHT22;16702;50.898;4.662;2023-08-12T07:32:11;22.10;99.90
29803;DHT22;16702;50.898;4.662;2023-08-12T07:34:42;22.10;99.90
29803;DHT22;16702;50.898;4.662;2023-08-12T07:37:13;22.10;99.90
29803;DHT22;16702;50.898;4.662;2023-08-12T07:39:43;22.10;99.90
29803;DHT22;16702;50.898;4.662;2023-08-12T07:42:17;22.00;99.90
29803;DHT22;16702;50.898;4.662;2023-08-12T07:44:47;22.00;99.90
29803;DHT22;16702;50.898;4.662;2023-08-12T07:47:18;22.10;99.90
29803;DHT22;16702;50.898;4.662;2023-08-12T07:49:48;22.00;99.90
29803;DHT22;16702;50.898;4.662;2023-08-12T07:52:19;22.00;99.90
29803;DHT22;16702;50.898;4.662;2023-08-12T07:54:50;21.90;99.90
29803;DHT22;16702;50.898;4.662;2023-08-12T07:57:23;21.90;99.90
29803;DHT22;16702;50.898;4.662;2023-08-12T07:59:54;21.90;99.90
29803;DHT22;16702;50.898;4.662;2023-08-12T08:02:24;21.90;99.90
29803;DHT22;16702;50.898;4.662;2023-08-12T08:04:55;21.80;99.90
29803;DHT22;16702;50.898;4.662;2023-08-12T08:07:26;21.70;99.90
29803;DHT22;16702;50.898;4.662;2023-08-12T08:09:56;21.70;99.90
29803;DHT22;16702;50.898;4.662;2023-08-12T08:12:30;21.60;99.90
29803;DHT22;16702;50.898;4.662;2023-08-12T08:15:00;21.70;99.90
29803;DHT22;16702;50.898;4.662;2023-08-12T08:17:31;21.70;99.90
29803;DHT22;16702;50.898;4.662;2023-08-12T08:20:06;21.70;99.90
29803;DHT22;16702;50.898;4.662;2023-08-12T08:22:38;21.70;99.90
29803;DHT22;16702;50.898;4.662;2023-08-12T08:25:08;21.70;99.90
29803;DHT22;16702;50.898;4.662;2023-08-12T08:27:42;21.70;99.90
29803;DHT22;16702;50.898;4.662;2023-08-12T08:30:12;21.70;99.90
29803;DHT22;16702;50.898;4.662;2023-08-12T08:32:43;21.70;99.90
29803;DHT22;16702;50.898;4.662;2023-08-12T08:35:14;21.70;99.90
29803;DHT22;16702;50.898;4.662;2023-08-12T08:37:45;21.70;99.90
29803;DHT22;16702;50.898;4.662;2023-08-12T08:40:15;21.70;99.90
29803;DHT22;16702;50.898;4.662;2023-08-12T08:42:52;21.70;99.90
29803;DHT22;16702;50.898;4.662;2023-08-12T08:45:23;21.80;99.90
29803;DHT22;16702;50.898;4.662;2023-08-12T08:47:56;21.80;99.90
29803;DHT22;16702;50.898;4.662;2023-08-12T08:50:27;21.80;99.90
29803;DHT22;16702;50.898;4.662;2023-08-12T08:53:00;21.80;99.90
29803;DHT22;16702;50.898;4.662;2023-08-12T08:55:31;21.70;99.90
29803;DHT22;16702;50.898;4.662;2023-08-12T08:58:05;21.70;99.90
29803;DHT22;16702;50.898;4.662;2023-08-12T09:00:36;21.90;99.90
29803;DHT22;16702;50.898;4.662;2023-08-12T09:03:08;21.90;99.90
29803;DHT22;16702;50.898;4.662;2023-08-12T09:05:41;21.90;99.90
29803;DHT22;16702;50.898;4.662;2023-08-12T09:08:13;21.90;99.90
29803;DHT22;16702;50.898;4.662;2023-08-12T09:10:46;21.80;99.90
29803;DHT22;16702;50.898;4.662;2023-08-12T09:13:20;21.90;99.90
29803;DHT22;16702;50.898;4.662;2023-08-12T09:15:50;21.90;99.90
29803;DHT22;16702;50.898;4.662;2023-08-12T09:18:21;22.00;99.90
29803;DHT22;16702;50.898;4.662;2023-08-12T09:20:53;22.00;99.90
29803;DHT22;16702;50.898;4.662;2023-08-12T09:23:25;22.00;99.90
29803;DHT22;16702;50.898;4.662;2023-08-12T09:25:56;22.00;99.90
29803;DHT22;16702;50.898;4.662;2023-08-12T09:28:29;21.90;99.90
29803;DHT22;16702;50.898;4.662;2023-08-12T09:31:00;21.80;99.90
29803;DHT22;16702;50.898;4.662;2023-08-12T09:33:30;21.90;99.90
29803;DHT22;16702;50.898;4.662;2023-08-12T09:36:01;21.80;99.90
29803;DHT22;16702;50.898;4.662;2023-08-12T09:38:31;21.90;99.90
29803;DHT22;16702;50.898;4.662;2023-08-12T09:41:02;21.90;99.90
29803;DHT22;16702;50.898;4.662;2023-08-12T09:43:40;21.90;99.90
29803;DHT22;16702;50.898;4.662;2023-08-12T09:46:11;21.90;99.90
29803;DHT22;16702;50.898;4.662;2023-08-12T09:48:43;21.90;99.90
29803;DHT22;16702;50.898;4.662;2023-08-12T09:51:13;21.90;99.90
29803;DHT22;16702;50.898;4.662;2023-08-12T09:53:45;22.00;99.90
29803;DHT22;16702;50.898;4.662;2023-08-12T09:56:18;22.00;99.90
29803;DHT22;16702;50.898;4.662;2023-08-12T09:58:52;22.00;99.90
29803;DHT22;16702;50.898;4.662;2023-08-12T10:01:24;22.10;99.90
29803;DHT22;16702;50.898;4.662;2023-08-12T10:03:55;22.20;99.90
29803;DHT22;16702;50.898;4.662;2023-08-12T10:06:26;22.10;99.90
29803;DHT22;16702;50.898;4.662;2023-08-12T10:08:57;22.00;99.90
29803;DHT22;16702;50.898;4.662;2023-08-12T10:11:28;22.00;99.90
29803;DHT22;16702;50.898;4.662;2023-08-12T10:14:01;22.00;99.90
29803;DHT22;16702;50.898;4.662;2023-08-12T10:16:33;22.00;99.90
29803;DHT22;16702;50.898;4.662;2023-08-12T10:19:05;21.90;99.90
29803;DHT22;16702;50.898;4.662;2023-08-12T10:21:36;22.10;99.90
29803;DHT22;16702;50.898;4.662;2023-08-12T10:24:09;22.10;99.90
29803;DHT22;16702;50.898;4.662;2023-08-12T10:26:40;22.10;99.90
29803;DHT22;16702;50.898;4.662;2023-08-12T10:29:14;22.20;99.90
29803;DHT22;16702;50.898;4.662;2023-08-12T10:31:46;22.10;99.90
29803;DHT22;16702;50.898;4.662;2023-08-12T10:34:21;22.10;99.90
29803;DHT22;16702;50.898;4.662;2023-08-12T10:36:54;22.10;99.90
29803;DHT22;16702;50.898;4.662;2023-08-12T10:39:31;22.10;99.90
29803;DHT22;16702;50.898;4.662;2023-08-12T10:42:05;22.00;99.90
29803;DHT22;16702;50.898;4.662;2023-08-12T10:44:50;22.10;99.90
29803;DHT22;16702;50.898;4.662;2023-08-12T10:47:22;22.20;99.90
29803;DHT22;16702;50.898;4.662;2023-08-12T10:49:53;22.20;99.90
29803;DHT22;16702;50.898;4.662;2023-08-12T10:52:27;22.30;99.90
29803;DHT22;16702;50.898;4.662;2023-08-12T10:55:16;22.30;99.90
29803;DHT22;16702;50.898;4.662;2023-08-12T10:57:49;22.50;99.90
29803;DHT22;16702;50.898;4.662;2023-08-12T11:00:27;22.50;99.90
29803;DHT22;16702;50.898;4.662;2023-08-12T11:02:58;22.60;99.90
29803;DHT22;16702;50.898;4.662;2023-08-12T11:05:36;22.50;99.90
29803;DHT22;16702;50.898;4.662;2023-08-12T11:08:07;22.60;99.90
29803;DHT22;16702;50.898;4.662;2023-08-12T11:10:38;22.60;99.90
29803;DHT22;16702;50.898;4.662;2023-08-12T11:13:10;22.60;99.90
29803;DHT22;16702;50.898;4.662;2023-08-12T11:15:44;22.70;99.90
29803;DHT22;16702;50.898;4.662;2023-08-12T11:18:16;22.70;99.90
29803;DHT22;16702;50.898;4.662;2023-08-12T11:20:48;23.00;99.90
29803;DHT22;16702;50.898;4.662;2023-08-12T11:23:19;23.10;99.90
29803;DHT22;16702;50.898;4.662;2023-08-12T11:25:51;23.20;99.90
29803;DHT22;16702;50.898;4.662;2023-08-12T11:28:24;23.30;99.90
29803;DHT22;16702;50.898;4.662;2023-08-12T11:30:58;23.30;99.90
29803;DHT22;16702;50.898;4.662;2023-08-12T11:33:29;23.40;99.90
29803;DHT22;16702;50.898;4.662;2023-08-12T11:36:00;23.60;99.90
29803;DHT22;16702;50.898;4.662;2023-08-12T11:38:31;23.80;99.90
29803;DHT22;16702;50.898;4.662;2023-08-12T11:41:02;23.80;99.90
29803;DHT22;16702;50.898;4.662;2023-08-12T11:43:34;24.00;99.90
29803;DHT22;16702;50.898;4.662;2023-08-12T11:46:07;24.00;99.90
29803;DHT22;16702;50.898;4.662;2023-08-12T11:48:37;24.10;99.90
29803;DHT22;16702;50.898;4.662;2023-08-12T11:51:08;24.20;99.90
29803;DHT22;16702;50.898;4.662;2023-08-12T11:53:39;24.40;99.90
29803;DHT22;16702;50.898;4.662;2023-08-12T11:56:09;24.20;99.90
29803;DHT22;16702;50.898;4.662;2023-08-12T11:58:43;24.30;99.90
29803;DHT22;16702;50.898;4.662;2023-08-12T12:01:22;23.90;99.90
29803;DHT22;16702;50.898;4.662;2023-08-12T12:03:55;23.70;99.90
29803;DHT22;16702;50.898;4.662;2023-08-12T12:06:31;23.70;99.90
29803;DHT22;16702;50.898;4.662;2023-08-12T12:09:02;23.60;99.90
29803;DHT22;16702;50.898;4.662;2023-08-12T12:11:37;23.60;99.90
29803;DHT22;16702;50.898;4.662;2023-08-12T12:14:09;24.00;99.90
29803;DHT22;16702;50.898;4.662;2023-08-12T12:16:44;24.30;99.90
29803;DHT22;16702;50.898;4.662;2023-08-12T12:19:17;24.40;99.90
29803;DHT22;16702;50.898;4.662;2023-08-12T12:21:48;24.70;99.90
29803;DHT22;16702;50.898;4.662;2023-08-12T12:24:20;24.70;99.90
29803;DHT22;16702;50.898;4.662;2023-08-12T12:26:53;24.70;99.90
29803;DHT22;16702;50.898;4.662;2023-08-12T12:29:23;24.80;99.90
29803;DHT22;16702;50.898;4.662;2023-08-12T12:31:56;24.80;99.90
29803;DHT22;16702;50.898;4.662;2023-08-12T12:34:27;24.90;99.90
29803;DHT22;16702;50.898;4.662;2023-08-12T12:36:58;24.90;99.90
29803;DHT22;16702;50.898;4.662;2023-08-12T12:39:28;24.80;99.90
29803;DHT22;16702;50.898;4.662;2023-08-12T12:41:59;24.80;99.90
29803;DHT22;16702;50.898;4.662;2023-08-12T12:44:30;24.80;99.90
29803;DHT22;16702;50.898;4.662;2023-08-12T12:47:03;25.10;99.90
29803;DHT22;16702;50.898;4.662;2023-08-12T12:49:38;24.90;99.90
29803;DHT22;16702;50.898;4.662;2023-08-12T12:52:09;24.70;99.90
29803;DHT22;16702;50.898;4.662;2023-08-12T12:54:40;24.50;99.90
29803;DHT22;16702;50.898;4.662;2023-08-12T12:57:10;24.30;99.90
29803;DHT22;16702;50.898;4.662;2023-08-12T12:59:41;24.90;99.90
29803;DHT22;16702;50.898;4.662;2023-08-12T13:02:14;24.90;99.90
29803;DHT22;16702;50.898;4.662;2023-08-12T13:04:45;24.70;99.90
29803;DHT22;16702;50.898;4.662;2023-08-12T13:07:17;24.70;99.90
29803;DHT22;16702;50.898;4.662;2023-08-12T13:09:47;24.90;99.90
29803;DHT22;16702;50.898;4.662;2023-08-12T13:12:18;24.80;99.90
29803;DHT22;16702;50.898;4.662;2023-08-12T13:14:48;24.80;99.90
29803;DHT22;16702;50.898;4.662;2023-08-12T13:17:22;24.90;99.90
29803;DHT22;16702;50.898;4.662;2023-08-12T13:19:52;25.10;99.90
29803;DHT22;16702;50.898;4.662;2023-08-12T13:22:23;25.00;99.90
29803;DHT22;16702;50.898;4.662;2023-08-12T13:24:53;25.20;99.90
29803;DHT22;16702;50.898;4.662;2023-08-12T13:27:24;24.90;99.90
29803;DHT22;16702;50.898;4.662;2023-08-12T13:29:55;25.20;99.90
29803;DHT22;16702;50.898;4.662;2023-08-12T13:32:28;25.30;99.90
29803;DHT22;16702;50.898;4.662;2023-08-12T13:34:59;25.10;99.90
29803;DHT22;16702;50.898;4.662;2023-08-12T13:37:30;25.10;99.90
29803;DHT22;16702;50.898;4.662;2023-08-12T13:40:00;25.30;99.90
29803;DHT22;16702;50.898;4.662;2023-08-12T13:42:31;25.40;99.90
29803;DHT22;16702;50.898;4.662;2023-08-12T13:45:01;25.80;99.90
29803;DHT22;16702;50.898;4.662;2023-08-12T13:47:34;25.80;99.90
29803;DHT22;16702;50.898;4.662;2023-08-12T13:50:06;25.70;99.90
29803;DHT22;16702;50.898;4.662;2023-08-12T13:52:37;25.60;99.90
29803;DHT22;16702;50.898;4.662;2023-08-12T13:55:08;25.70;99.90
29803;DHT22;16702;50.898;4.662;2023-08-12T13:57:39;25.70;99.90
29803;DHT22;16702;50.898;4.662;2023-08-12T14:00:10;25.80;99.90
29803;DHT22;16702;50.898;4.662;2023-08-12T14:02:45;26.10;99.90
29803;DHT22;16702;50.898;4.662;2023-08-12T14:05:16;26.20;99.90
29803;DHT22;16702;50.898;4.662;2023-08-12T14:07:47;26.20;99.90
29803;DHT22;16702;50.898;4.662;2023-08-12T14:10:18;26.30;99.90
29803;DHT22;16702;50.898;4.662;2023-08-12T14:12:48;26.50;99.90
29803;DHT22;16702;50.898;4.662;2023-08-12T14:15:19;26.70;99.90
29803;DHT22;16702;50.898;4.662;2023-08-12T14:17:52;26.60;99.90
29803;DHT22;16702;50.898;4.662;2023-08-12T14:20:23;26.90;99.90
29803;DHT22;16702;50.898;4.662;2023-08-12T14:22:54;26.90;99.90
29803;DHT22;16702;50.898;4.662;2023-08-12T14:25:25;26.90;99.90
29803;DHT22;16702;50.898;4.662;2023-08-12T14:27:55;26.60;99.90
29803;DHT22;16702;50.898;4.662;2023-08-12T14:30:26;26.80;99.90
29803;DHT22;16702;50.898;4.662;2023-08-12T14:33:02;26.70;99.90
29803;DHT22;16702;50.898;4.662;2023-08-12T14:35:34;26.50;99.90
29803;DHT22;16702;50.898;4.662;2023-08-12T14:38:05;26.40;99.90
29803;DHT22;16702;50.898;4.662;2023-08-12T14:40:36;26.60;99.90
29803;DHT22;16702;50.898;4.662;2023-08-12T14:43:06;26.60;99.90
29803;DHT22;16702;50.898;4.662;2023-08-12T14:45:37;26.40;99.90
29803;DHT22;16702;50.898;4.662;2023-08-12T14:48:10;26.50;99.90
29803;DHT22;16702;50.898;4.662;2023-08-12T14:50:42;26.90;99.90
29803;DHT22;16702;50.898;4.662;2023-08-12T14:53:13;27.10;99.90
29803;DHT22;16702;50.898;4.662;2023-08-12T14:55:43;27.20;99.90
29803;DHT22;16702;50.898;4.662;2023-08-12T14:58:15;27.20;99.90
29803;DHT22;16702;50.898;4.662;2023-08-12T15:00:47;26.80;99.90
29803;DHT22;16702;50.898;4.662;2023-08-12T15:03:20;26.80;99.90
29803;DHT22;16702;50.898;4.662;2023-08-12T15:05:58;27.00;99.90
29803;DHT22;16702;50.898;4.662;2023-08-12T15:08:31;27.00;99.90
29803;DHT22;16702;50.898;4.662;2023-08-12T15:11:02;26.90;99.90
29803;DHT22;16702;50.898;4.662;2023-08-12T15:13:32;26.80;99.90
29803;DHT22;16702;50.898;4.662;2023-08-12T15:16:11;26.90;99.90
29803;DHT22;16702;50.898;4.662;2023-08-12T15:18:41;26.60;99.90
29803;DHT22;16702;50.898;4.662;2023-08-12T15:21:12;26.60;99.90
29803;DHT22;16702;50.898;4.662;2023-08-12T15:23:43;26.50;99.90
29803;DHT22;16702;50.898;4.662;2023-08-12T15:26:14;27.00;99.90
29803;DHT22;16702;50.898;4.662;2023-08-12T15:28:45;27.10;99.90
29803;DHT22;16702;50.898;4.662;2023-08-12T15:31:18;27.20;99.90
29803;DHT22;16702;50.898;4.662;2023-08-12T15:33:49;26.80;99.90
29803;DHT22;16702;50.898;4.662;2023-08-12T15:36:19;26.70;99.90
29803;DHT22;16702;50.898;4.662;2023-08-12T15:38:50;26.50;99.90
29803;DHT22;16702;50.898;4.662;2023-08-12T15:41:21;26.20;99.90
29803;DHT22;16702;50.898;4.662;2023-08-12T15:43:51;26.40;99.90
29803;DHT22;16702;50.898;4.662;2023-08-12T15:46:25;26.50;99.90
29803;DHT22;16702;50.898;4.662;2023-08-12T15:48:56;26.40;99.90
29803;DHT22;16702;50.898;4.662;2023-08-12T15:51:26;26.50;99.90
29803;DHT22;16702;50.898;4.662;2023-08-12T15:53:57;26.50;99.90
29803;DHT22;16702;50.898;4.662;2023-08-12T15:56:28;26.50;99.90
29803;DHT22;16702;50.898;4.662;2023-08-12T15:59:02;26.50;99.90